createdAt,value
2022-09-28T00:00:55.531Z,1.10
2022-09-28T00:02:58.372Z,1.30
2022-09-28T00:05:01.046Z,1.20
2022-09-28T00:07:03.657Z,1.20
2022-09-28T00:09:07.670Z,1.00
2022-09-28T00:11:15.207Z,1.08
2022-09-28T00:13:17.842Z,1.38
2022-09-28T00:15:20.408Z,1.20
2022-09-28T00:17:23.846Z,1.05
2022-09-28T00:19:26.588Z,0.95
2022-09-28T00:21:31.481Z,1.10
2022-09-28T00:23:34.309Z,1.10
2022-09-28T00:25:38.257Z,1.20
2022-09-28T00:27:41.192Z,1.27
2022-09-28T00:29:43.831Z,1.27
2022-09-28T00:31:46.473Z,1.20
2022-09-28T00:33:51.526Z,1.25
2022-09-28T00:36:00.209Z,1.20
2022-09-28T00:38:03.822Z,1.02
2022-09-28T00:40:07.655Z,1.10
2022-09-28T00:42:15.421Z,1.30
2022-09-28T00:44:40.868Z,1.67
2022-09-28T00:46:43.541Z,1.08
2022-09-28T00:48:53.976Z,1.23
2022-09-28T00:50:57.563Z,1.30
2022-09-28T00:53:06.255Z,1.40
2022-09-28T00:55:12.290Z,1.60
2022-09-28T00:57:17.004Z,1.60
2022-09-28T00:59:19.734Z,1.00
2022-09-28T01:01:22.611Z,1.45
2022-09-28T01:03:25.868Z,1.33
2022-09-28T01:05:28.719Z,1.10
2022-09-28T01:07:33.241Z,1.10
2022-09-28T01:09:39.770Z,1.40
2022-09-28T01:11:43.920Z,1.30
2022-09-28T01:13:51.214Z,1.40
2022-09-28T01:16:02.192Z,1.15
2022-09-28T01:18:14.201Z,1.15
2022-09-28T01:20:40.182Z,1.27
2022-09-28T01:23:13.319Z,0.90
2022-09-28T01:25:25.888Z,1.00
2022-09-28T01:27:34.125Z,0.90
2022-09-28T01:29:45.263Z,1.10
2022-09-28T01:31:53.756Z,1.02
2022-09-28T01:34:01.978Z,0.88
2022-09-28T01:36:11.258Z,1.10
2022-09-28T01:38:18.620Z,1.35
2022-09-28T01:40:23.488Z,1.42
2022-09-28T01:42:32.929Z,1.30
2022-09-28T01:44:40.049Z,1.50
2022-09-28T01:46:45.240Z,1.40
2022-09-28T01:48:52.478Z,1.38
2022-09-28T01:50:57.933Z,1.23
2022-09-28T01:53:05.042Z,1.10
2022-09-28T01:55:12.864Z,1.30
2022-09-28T01:57:19.305Z,1.40
2022-09-28T01:59:26.346Z,1.15
2022-09-28T02:01:34.751Z,1.10
2022-09-28T02:03:42.242Z,1.15
2022-09-28T02:05:50.261Z,1.15
2022-09-28T02:08:00.567Z,1.40
2022-09-28T02:10:09.624Z,1.10
2022-09-28T02:12:17.164Z,1.13
2022-09-28T02:14:20.832Z,1.60
2022-09-28T02:16:33.326Z,1.20
2022-09-28T02:18:36.281Z,1.40
2022-09-28T02:20:42.405Z,1.13
2022-09-28T02:22:48.877Z,1.10
2022-09-28T02:24:56.459Z,1.17
2022-09-28T02:27:04.053Z,1.02
2022-09-28T02:29:06.742Z,1.40
2022-09-28T02:31:09.396Z,0.90
2022-09-28T02:33:18.487Z,1.30
2022-09-28T02:35:21.811Z,1.38
2022-09-28T02:37:24.573Z,1.33
2022-09-28T02:39:27.608Z,1.50
2022-09-28T02:41:46.600Z,1.17
2022-09-28T02:43:58.176Z,1.40
2022-09-28T02:46:09.987Z,1.35
2022-09-28T02:48:42.700Z,1.10
2022-09-28T02:50:57.595Z,1.35
2022-09-28T02:53:25.531Z,1.13
2022-09-28T02:55:43.497Z,1.20
2022-09-28T02:58:09.680Z,1.30
2022-09-28T03:00:18.606Z,1.30
2022-09-28T03:02:28.887Z,1.00
2022-09-28T03:04:40.795Z,1.30
2022-09-28T03:06:49.571Z,1.30
2022-09-28T03:09:00.049Z,1.50
2022-09-28T03:11:05.441Z,1.13
2022-09-28T03:13:08.943Z,1.20
2022-09-28T03:15:14.738Z,1.33
2022-09-28T03:17:17.367Z,1.45
2022-09-28T03:19:23.800Z,1.20
2022-09-28T03:21:27.811Z,0.93
2022-09-28T03:23:30.430Z,1.15
2022-09-28T03:25:33.024Z,1.30
2022-09-28T03:27:35.617Z,1.20
2022-09-28T03:29:38.535Z,1.23
2022-09-28T03:31:41.224Z,1.10
2022-09-28T03:33:43.853Z,1.33
2022-09-28T03:35:47.906Z,1.48
2022-09-28T03:37:55.744Z,1.08
2022-09-28T03:39:58.512Z,1.30
2022-09-28T03:42:01.544Z,1.30
2022-09-28T03:44:04.474Z,1.20
2022-09-28T03:46:07.310Z,1.27
2022-09-28T03:48:09.989Z,1.90
2022-09-28T03:50:12.572Z,1.23
2022-09-28T03:52:16.232Z,1.30
2022-09-28T03:54:20.227Z,1.65
2022-09-28T03:56:22.863Z,1.20
2022-09-28T03:58:25.477Z,1.15
2022-09-28T04:00:28.116Z,1.35
2022-09-28T04:02:30.906Z,1.42
2022-09-28T04:04:33.649Z,1.25
2022-09-28T04:06:36.241Z,1.55
2022-09-28T04:08:38.823Z,1.20
2022-09-28T04:10:42.799Z,1.30
2022-09-28T04:12:45.912Z,1.40
2022-09-28T04:14:48.552Z,1.85
2022-09-28T04:16:54.214Z,1.80
2022-09-28T04:18:58.473Z,1.75
2022-09-28T04:21:03.566Z,1.17
2022-09-28T04:23:06.181Z,1.10
2022-09-28T04:25:09.586Z,0.80
2022-09-28T04:27:31.011Z,1.38
2022-09-28T04:29:33.633Z,1.02
2022-09-28T04:31:41.764Z,1.10
2022-09-28T04:33:44.546Z,1.05
2022-09-28T04:35:47.206Z,1.65
2022-09-28T04:37:49.828Z,1.10
2022-09-28T04:39:52.525Z,1.35
2022-09-28T04:41:55.112Z,1.02
2022-09-28T04:43:59.099Z,1.00
2022-09-28T04:46:02.942Z,0.85
2022-09-28T04:48:07.479Z,0.82
2022-09-28T04:50:10.486Z,0.80
2022-09-28T04:52:18.015Z,0.68
2022-09-28T04:54:21.016Z,0.82
2022-09-28T04:56:23.692Z,0.85
2022-09-28T04:58:27.209Z,0.90
2022-09-28T05:00:35.203Z,0.60
2022-09-28T05:02:37.817Z,0.85
2022-09-28T05:04:40.907Z,0.90
2022-09-28T05:06:43.515Z,1.00
2022-09-28T05:08:47.109Z,0.57
2022-09-28T05:10:49.873Z,0.98
2022-09-28T05:12:52.541Z,1.30
2022-09-28T05:14:56.444Z,1.00
2022-09-28T05:17:00.436Z,1.08
2022-09-28T05:19:03.069Z,1.00
2022-09-28T05:21:10.628Z,1.27
2022-09-28T05:23:15.366Z,1.20
2022-09-28T05:25:17.980Z,1.10
2022-09-28T05:27:20.589Z,1.38
2022-09-28T05:29:23.212Z,1.30
2022-09-28T05:31:27.167Z,1.13
2022-09-28T05:33:32.013Z,1.30
2022-09-28T05:35:34.703Z,0.95
2022-09-28T05:37:37.483Z,1.00
2022-09-28T05:39:40.368Z,1.25
2022-09-28T05:41:42.942Z,0.93
2022-09-28T05:43:46.067Z,1.10
2022-09-28T05:45:53.019Z,0.85
2022-09-28T05:47:58.247Z,0.88
2022-09-28T05:50:02.260Z,1.20
2022-09-28T05:52:04.832Z,0.88
2022-09-28T05:54:07.444Z,1.35
2022-09-28T05:56:10.035Z,1.17
2022-09-28T05:58:12.678Z,1.00
2022-09-28T06:00:15.626Z,1.17
2022-09-28T06:02:18.444Z,1.35
2022-09-28T06:04:21.118Z,1.40
2022-09-28T06:06:25.136Z,0.80
2022-09-28T06:08:27.708Z,1.00
2022-09-28T06:10:30.362Z,1.10
2022-09-28T06:12:35.064Z,1.20
2022-09-28T06:14:38.817Z,1.50
2022-09-28T06:16:56.850Z,1.25
2022-09-28T06:18:59.474Z,0.90
2022-09-28T06:21:02.543Z,0.90
2022-09-28T06:23:06.609Z,1.00
2022-09-28T06:25:10.461Z,1.20
2022-09-28T06:27:13.058Z,1.00
2022-09-28T06:29:19.851Z,1.25
2022-09-28T06:31:23.779Z,1.42
2022-09-28T06:33:26.720Z,1.33
2022-09-28T06:35:31.207Z,1.40
2022-09-28T06:37:33.888Z,1.10
2022-09-28T06:39:37.910Z,1.15
2022-09-28T06:41:40.908Z,1.50
2022-09-28T06:43:43.558Z,1.80
2022-09-28T06:45:52.446Z,1.58
2022-09-28T06:47:57.493Z,1.55
2022-09-28T06:50:00.107Z,1.40
2022-09-28T06:52:02.876Z,1.50
2022-09-28T06:54:06.113Z,1.75
2022-09-28T06:56:12.209Z,1.70
2022-09-28T06:58:17.254Z,1.60
2022-09-28T07:00:20.131Z,1.80
2022-09-28T07:02:23.523Z,1.48
2022-09-28T07:04:26.277Z,1.60
2022-09-28T07:06:31.442Z,1.48
2022-09-28T07:08:34.006Z,1.50
2022-09-28T07:10:36.718Z,1.55
2022-09-28T07:12:40.781Z,1.85
2022-09-28T07:14:47.893Z,1.40
2022-09-28T07:17:11.833Z,1.67
2022-09-28T07:19:14.486Z,1.85
2022-09-28T07:21:28.189Z,1.50
2022-09-28T07:23:34.619Z,2.50
2022-09-28T07:25:45.435Z,1.60
2022-09-28T07:27:49.504Z,1.63
2022-09-28T07:29:53.113Z,1.45
2022-09-28T07:31:55.735Z,2.00
2022-09-28T07:33:58.689Z,2.15
2022-09-28T07:36:06.364Z,1.83
2022-09-28T07:38:09.667Z,1.70
2022-09-28T07:40:29.752Z,1.80
2022-09-28T07:42:32.461Z,1.83
2022-09-28T07:44:38.963Z,1.77
2022-09-28T07:46:44.197Z,1.40
2022-09-28T07:48:46.890Z,1.70
2022-09-28T07:50:51.653Z,1.45
2022-09-28T07:52:54.341Z,1.52
2022-09-28T07:54:57.029Z,1.38
2022-09-28T07:56:59.704Z,2.00
2022-09-28T07:59:02.449Z,1.63
2022-09-28T08:01:10.291Z,1.83
2022-09-28T08:03:12.980Z,1.98
2022-09-28T08:05:15.660Z,1.48
2022-09-28T08:07:23.470Z,1.73
2022-09-28T08:09:26.596Z,1.30
2022-09-28T08:11:29.205Z,1.50
2022-09-28T08:13:31.882Z,1.70
2022-09-28T08:15:36.827Z,1.23
2022-09-28T08:17:40.815Z,1.75
2022-09-28T08:20:00.034Z,1.70
2022-09-28T08:22:02.666Z,1.75
2022-09-28T08:24:05.735Z,1.85
2022-09-28T08:26:13.277Z,1.63
2022-09-28T08:28:18.664Z,1.50
2022-09-28T08:30:21.367Z,1.35
2022-09-28T08:32:24.616Z,1.73
2022-09-28T08:34:28.894Z,1.70
2022-09-28T08:36:31.524Z,2.33
2022-09-28T08:38:34.176Z,1.80
2022-09-28T08:40:49.388Z,1.90
2022-09-28T08:42:56.221Z,1.70
2022-09-28T08:47:07.229Z,1.35
2022-09-28T08:49:24.854Z,1.60
2022-09-28T08:51:33.890Z,1.67
2022-09-28T08:53:44.257Z,1.73
2022-09-28T08:55:47.507Z,1.38
2022-09-28T08:57:57.403Z,1.60
2022-09-28T09:00:04.731Z,1.40
2022-09-28T09:02:16.007Z,1.60
2022-09-28T09:04:19.101Z,1.38
2022-09-28T09:06:29.990Z,1.45
2022-09-28T09:08:46.047Z,1.50
2022-09-28T09:10:51.960Z,1.15
2022-09-28T09:13:04.427Z,1.42
2022-09-28T09:15:22.720Z,1.75
2022-09-28T09:17:39.176Z,3.13
2022-09-28T09:19:51.496Z,1.50
2022-09-28T09:22:01.578Z,1.45
2022-09-28T09:24:21.469Z,1.85
2022-09-28T09:26:37.105Z,1.63
2022-09-28T09:28:59.366Z,1.50
2022-09-28T09:31:12.302Z,1.80
2022-09-28T09:33:40.942Z,1.63
2022-09-28T09:36:11.658Z,1.50
2022-09-28T09:38:33.656Z,1.80
2022-09-28T09:40:53.068Z,1.60
2022-09-28T09:43:19.608Z,1.40
2022-09-28T09:45:43.039Z,1.52
2022-09-28T09:47:51.537Z,1.45
2022-09-28T09:50:05.435Z,1.70
2022-09-28T09:52:19.675Z,1.60
2022-09-28T09:54:28.685Z,1.60
2022-09-28T09:56:38.511Z,1.75
2022-09-28T09:58:47.945Z,1.42
2022-09-28T10:00:53.601Z,1.50
2022-09-28T10:03:00.123Z,1.40
2022-09-28T10:05:07.822Z,1.70
2022-09-28T10:07:19.767Z,1.63
2022-09-28T10:09:27.168Z,1.40
2022-09-28T10:11:36.055Z,1.60
2022-09-28T10:13:40.316Z,1.60
2022-09-28T10:15:43.561Z,2.95
2022-09-28T10:17:46.407Z,1.55
2022-09-28T10:19:49.063Z,1.90
2022-09-28T10:21:51.981Z,2.00
2022-09-28T10:23:58.306Z,1.80
2022-09-28T10:26:05.038Z,1.60
2022-09-28T10:28:08.610Z,1.80
2022-09-28T10:30:18.819Z,1.40
2022-09-28T10:32:24.327Z,1.40
2022-09-28T10:34:28.729Z,1.55
2022-09-28T10:36:38.183Z,1.30
2022-09-28T10:38:48.544Z,1.58
2022-09-28T10:40:54.254Z,1.30
2022-09-28T10:43:09.173Z,1.40
2022-09-28T10:45:22.222Z,1.80
2022-09-28T10:47:27.355Z,2.08
2022-09-28T10:49:33.338Z,1.67
2022-09-28T10:51:43.450Z,1.65
2022-09-28T10:53:59.918Z,2.03
2022-09-28T10:56:05.551Z,1.83
2022-09-28T10:58:27.842Z,1.58
2022-09-28T11:00:36.016Z,1.90
2022-09-28T11:06:51.449Z,1.50
2022-09-28T11:08:55.767Z,1.48
2022-09-28T11:11:04.603Z,1.60
2022-09-28T11:13:10.474Z,1.55
2022-09-28T11:15:19.926Z,2.08
2022-09-28T11:17:29.964Z,1.60
2022-09-28T11:19:32.671Z,2.28
2022-09-28T11:21:43.121Z,1.60
2022-09-28T11:23:58.289Z,1.23
2022-09-28T11:26:05.689Z,1.33
2022-09-28T11:28:20.713Z,1.70
2022-09-28T11:30:25.683Z,1.17
2022-09-28T11:32:40.605Z,1.40
2022-09-28T11:34:59.311Z,1.23
2022-09-28T11:37:17.524Z,1.40
2022-09-28T11:39:30.439Z,1.20
2022-09-28T11:41:52.486Z,1.20
2022-09-28T11:44:14.421Z,1.10
2022-09-28T11:46:26.482Z,1.40
2022-09-28T11:48:40.410Z,1.42
2022-09-28T11:50:48.554Z,1.20
2022-09-28T11:52:58.533Z,1.00
2022-09-28T11:55:07.429Z,1.00
2022-09-28T11:57:17.244Z,1.10
2022-09-28T11:59:33.332Z,1.30
2022-09-28T12:01:41.318Z,1.10
2022-09-28T12:03:51.564Z,1.40
2022-09-28T12:06:00.567Z,1.17
2022-09-28T12:08:08.839Z,1.13
2022-09-28T12:10:18.935Z,1.30
2022-09-28T12:12:26.670Z,1.23
2022-09-28T12:14:34.229Z,1.40
2022-09-28T12:19:16.502Z,1.42
2022-09-28T12:21:34.601Z,1.35
2022-09-28T12:23:41.299Z,1.20
2022-09-28T12:25:50.471Z,0.95
2022-09-28T12:27:57.528Z,1.23
2022-09-28T12:30:06.180Z,1.20
2022-09-28T12:32:15.330Z,0.95
2022-09-28T12:34:19.348Z,1.02
2022-09-28T12:36:32.463Z,0.82
2022-09-28T12:38:54.060Z,0.90
2022-09-28T12:41:05.731Z,1.10
2022-09-28T12:43:48.092Z,0.90
2022-09-28T12:48:36.986Z,1.27
2022-09-28T12:50:56.703Z,0.93
2022-09-28T12:53:27.234Z,1.15
2022-09-28T12:55:51.319Z,1.00
2022-09-28T12:58:00.563Z,0.80
2022-09-28T13:00:06.785Z,1.10
2022-09-28T13:02:31.511Z,0.93
2022-09-28T13:05:00.138Z,0.98
2022-09-28T13:07:07.535Z,1.00
2022-09-28T13:09:19.909Z,0.90
2022-09-28T13:13:47.764Z,0.93
2022-09-28T13:15:58.744Z,1.02
2022-09-28T13:18:18.202Z,1.00
2022-09-28T13:20:32.160Z,1.10
2022-09-28T13:22:50.461Z,0.88
2022-09-28T13:24:56.777Z,1.05
2022-09-28T13:27:06.906Z,1.20
2022-09-28T13:29:14.247Z,1.00
2022-09-28T13:31:21.907Z,0.90
2022-09-28T13:33:33.687Z,1.42
2022-09-28T13:35:36.301Z,1.00
2022-09-28T13:37:40.622Z,1.15
2022-09-28T13:39:52.667Z,0.80
2022-09-28T13:41:55.960Z,0.75
2022-09-28T13:44:39.622Z,0.88
2022-09-28T13:46:52.493Z,0.70
2022-09-28T13:49:09.700Z,0.95
2022-09-28T13:51:40.932Z,0.90
2022-09-28T13:54:07.792Z,0.73
2022-09-28T13:56:25.499Z,1.13
2022-09-28T13:58:33.471Z,0.82
2022-09-28T14:00:45.735Z,0.80
2022-09-28T14:02:52.894Z,0.73
2022-09-28T14:04:58.831Z,0.80
2022-09-28T14:07:11.774Z,0.82
2022-09-28T14:09:28.575Z,0.90
2022-09-28T14:11:55.911Z,1.42
2022-09-28T14:14:03.186Z,1.00
2022-09-28T14:16:22.224Z,1.52
2022-09-28T14:18:31.209Z,0.90
2022-09-28T14:20:36.378Z,0.90
2022-09-28T14:22:55.136Z,1.05
2022-09-28T14:25:08.797Z,1.02
2022-09-28T14:27:28.845Z,0.93
2022-09-28T14:29:33.475Z,0.85
2022-09-28T14:31:43.288Z,1.20
2022-09-28T14:33:56.873Z,0.70
2022-09-28T14:36:02.272Z,0.70
2022-09-28T14:38:36.559Z,0.88
2022-09-28T14:41:10.890Z,0.90
2022-09-28T14:43:27.085Z,0.80
2022-09-28T14:45:38.335Z,1.08
2022-09-28T14:47:43.812Z,1.08
2022-09-28T14:50:01.707Z,0.80
2022-09-28T14:52:04.802Z,0.70
2022-09-28T14:54:17.058Z,0.80
2022-09-28T14:56:22.098Z,0.93
2022-09-28T14:58:27.513Z,0.93
2022-09-28T15:00:31.665Z,0.90
2022-09-28T15:02:38.499Z,0.80
2022-09-28T15:04:43.521Z,0.80
2022-09-28T15:06:48.216Z,0.90
2022-09-28T15:08:51.256Z,0.90
2022-09-28T15:10:53.906Z,0.85
2022-09-28T15:12:58.444Z,1.30
2022-09-28T15:15:03.566Z,0.90
2022-09-28T15:17:10.891Z,0.90
2022-09-28T15:19:29.229Z,1.27
2022-09-28T15:21:36.756Z,0.80
2022-09-28T15:23:41.309Z,1.00
2022-09-28T15:25:52.671Z,1.00
2022-09-28T15:27:56.935Z,1.05
2022-09-28T15:30:02.613Z,0.85
2022-09-28T15:32:05.333Z,1.00
2022-09-28T15:34:44.181Z,0.80
2022-09-28T15:36:47.607Z,0.95
2022-09-28T15:38:57.360Z,1.00
2022-09-28T15:41:02.755Z,1.00
2022-09-28T15:43:23.535Z,0.95
2022-09-28T15:45:32.748Z,1.10
2022-09-28T15:47:38.701Z,1.10
2022-09-28T15:49:45.990Z,1.17
2022-09-28T15:51:53.683Z,0.90
2022-09-28T15:54:00.164Z,1.13
2022-09-28T15:56:09.984Z,1.05
2022-09-28T15:58:18.679Z,0.90
2022-09-28T16:00:29.167Z,1.00
2022-09-28T16:02:31.959Z,1.10
2022-09-28T16:04:38.194Z,0.90
2022-09-28T16:06:41.937Z,1.10
2022-09-28T16:08:45.841Z,1.35
2022-09-28T16:10:58.811Z,1.20
2022-09-28T16:13:15.438Z,0.98
2022-09-28T16:15:22.686Z,1.02
2022-09-28T16:17:32.289Z,1.02
2022-09-28T16:19:39.251Z,1.05
2022-09-28T16:21:46.397Z,1.17
2022-09-28T16:23:52.979Z,1.15
2022-09-28T16:25:59.723Z,1.00
2022-09-28T16:30:17.078Z,1.10
2022-09-28T16:32:41.545Z,0.98
2022-09-28T16:36:49.556Z,1.00
2022-09-28T16:38:54.281Z,0.82
2022-09-28T16:40:59.334Z,1.27
2022-09-28T16:43:05.301Z,1.10
2022-09-28T16:45:15.296Z,1.10
2022-09-28T16:47:17.979Z,1.30
2022-09-28T16:49:23.827Z,1.33
2022-09-28T16:51:26.734Z,1.30
2022-09-28T16:53:46.820Z,1.30
2022-09-28T16:55:50.671Z,1.20
2022-09-28T16:57:53.303Z,1.30
2022-09-28T16:59:55.891Z,1.25
2022-09-28T17:01:59.181Z,1.55
2022-09-28T17:04:02.382Z,1.30
2022-09-28T17:06:07.362Z,1.20
2022-09-28T17:08:14.659Z,1.33
2022-09-28T17:10:19.209Z,1.50
2022-09-28T17:12:24.384Z,2.10
2022-09-28T17:14:27.070Z,2.40
2022-09-28T17:16:59.887Z,1.65
2022-09-28T17:18:55.611Z,2.00
2022-09-28T17:20:59.392Z,1.50
2022-09-28T17:23:03.398Z,1.80
2022-09-28T17:25:09.052Z,1.70
2022-09-28T17:27:20.907Z,1.73
2022-09-28T17:29:23.868Z,1.73
2022-09-28T17:31:27.383Z,1.90
2022-09-28T17:33:30.267Z,2.20
2022-09-28T17:35:36.186Z,2.20
2022-09-28T17:37:42.044Z,1.90
2022-09-28T17:39:46.017Z,2.10
2022-09-28T17:41:48.668Z,2.58
2022-09-28T17:43:51.271Z,2.25
2022-09-28T17:45:54.058Z,2.13
2022-09-28T17:47:57.366Z,2.13
2022-09-28T17:49:59.969Z,1.95
2022-09-28T17:52:04.014Z,2.22
2022-09-28T17:54:08.520Z,1.80
2022-09-28T17:56:12.570Z,2.20
2022-09-28T17:58:18.080Z,1.95
2022-09-28T18:00:20.788Z,1.67
2022-09-28T18:02:25.072Z,2.00
2022-09-28T18:04:50.833Z,1.88
2022-09-28T18:06:50.941Z,1.70
2022-09-28T18:08:53.577Z,1.80
2022-09-28T18:10:56.705Z,1.63
2022-09-28T18:13:00.703Z,1.92
2022-09-28T18:15:05.382Z,2.30
2022-09-28T18:17:08.172Z,2.08
2022-09-28T18:19:10.889Z,1.90
2022-09-28T18:21:13.956Z,2.17
2022-09-28T18:23:16.850Z,2.08
2022-09-28T18:25:19.648Z,2.00
2022-09-28T18:27:22.515Z,2.22
2022-09-28T18:29:29.904Z,2.40
2022-09-28T18:31:35.006Z,2.13
2022-09-28T18:33:37.730Z,2.00
2022-09-28T18:35:40.489Z,2.00
2022-09-28T18:37:43.430Z,2.30
2022-09-28T18:39:46.250Z,2.63
2022-09-28T18:41:49.053Z,2.17
2022-09-28T18:43:52.150Z,2.13
2022-09-28T18:45:56.320Z,2.40
2022-09-28T18:47:59.574Z,2.30
2022-09-28T18:50:02.236Z,2.40
2022-09-28T18:52:04.953Z,2.53
2022-09-28T18:54:07.621Z,2.42
2022-09-28T18:56:12.944Z,2.42
2022-09-28T18:58:15.620Z,2.83
2022-09-28T19:00:18.291Z,3.45
2022-09-28T19:02:22.369Z,3.10
2022-09-28T19:04:25.330Z,2.90
2022-09-28T19:06:28.501Z,2.70
2022-09-28T19:08:31.329Z,3.67
2022-09-28T19:10:33.988Z,3.33
2022-09-28T19:12:36.625Z,3.83
2022-09-28T19:14:39.264Z,3.55
2022-09-28T19:16:41.966Z,3.05
2022-09-28T19:18:46.327Z,3.95
2022-09-28T19:20:48.984Z,3.95
2022-09-28T19:22:51.656Z,3.72
2022-09-28T19:24:54.305Z,3.72
2022-09-28T19:26:57.220Z,3.15
2022-09-28T19:29:00.703Z,3.10
2022-09-28T19:31:05.898Z,2.95
2022-09-28T19:33:08.545Z,3.42
2022-09-28T19:35:12.588Z,3.50
2022-09-28T19:37:15.355Z,3.33
2022-09-28T19:39:18.193Z,8.60
2022-09-28T19:41:39.581Z,2.97
2022-09-28T19:43:44.861Z,4.05
2022-09-28T19:45:51.966Z,3.10
2022-09-28T19:47:59.247Z,3.58
2022-09-28T19:50:03.332Z,4.78
2022-09-28T19:52:15.010Z,3.03
2022-09-28T19:54:18.997Z,2.97
2022-09-28T19:56:22.320Z,5.00
2022-09-28T19:58:26.762Z,5.30
2022-09-28T20:00:29.409Z,7.35
2022-09-28T20:02:32.194Z,2.88
2022-09-28T20:04:35.466Z,2.85
2022-09-28T20:06:39.351Z,2.60
2022-09-28T20:08:44.787Z,2.65
2022-09-28T20:10:52.259Z,2.53
2022-09-28T20:12:54.847Z,2.90
2022-09-28T20:14:57.790Z,2.97
2022-09-28T20:17:00.419Z,2.92
2022-09-28T20:19:04.870Z,2.88
2022-09-28T20:21:09.461Z,3.60
2022-09-28T20:23:12.957Z,6.07
2022-09-28T20:25:17.008Z,4.00
2022-09-28T20:27:22.077Z,3.42
2022-09-28T20:29:28.121Z,3.42
2022-09-28T20:31:31.028Z,4.20
2022-09-28T20:33:35.257Z,3.40
2022-09-28T20:35:40.375Z,4.38
2022-09-28T20:37:43.180Z,4.25
2022-09-28T20:39:46.090Z,4.07
2022-09-28T20:41:50.120Z,4.80
2022-09-28T20:43:53.918Z,3.95
2022-09-28T20:45:56.940Z,5.40
2022-09-28T20:48:04.377Z,3.08
2022-09-28T20:50:08.373Z,3.95
2022-09-28T20:52:11.109Z,3.50
2022-09-28T20:54:13.762Z,4.00
2022-09-28T20:56:19.513Z,2.92
2022-09-28T20:58:23.500Z,3.28
2022-09-28T21:00:26.215Z,3.38
2022-09-28T21:02:28.849Z,2.72
2022-09-28T21:04:32.250Z,2.70
2022-09-28T21:06:36.842Z,2.83
2022-09-28T21:08:39.438Z,3.00
2022-09-28T21:10:44.903Z,3.28
2022-09-28T21:12:53.089Z,3.30
2022-09-28T21:14:57.051Z,3.33
2022-09-28T21:16:59.719Z,3.85
2022-09-28T21:19:02.710Z,3.40
2022-09-28T21:21:07.141Z,3.70
2022-09-28T21:23:09.776Z,3.00
2022-09-28T21:25:12.371Z,2.97
2022-09-28T21:27:14.998Z,3.33
2022-09-28T21:29:17.789Z,3.20
2022-09-28T21:31:26.226Z,3.33
2022-09-28T21:33:31.369Z,3.08
2022-09-28T21:35:35.155Z,3.33
2022-09-28T21:37:37.775Z,3.22
2022-09-28T21:39:40.480Z,2.88
2022-09-28T21:41:43.506Z,3.30
2022-09-28T21:43:46.917Z,3.13
2022-09-28T21:45:50.740Z,3.15
2022-09-28T21:47:55.420Z,3.28
2022-09-28T21:49:58.053Z,3.17
2022-09-28T21:52:02.047Z,3.55
2022-09-28T21:54:05.204Z,3.30
2022-09-28T21:56:10.802Z,3.33
2022-09-28T21:58:13.406Z,3.47
2022-09-28T22:00:17.291Z,3.10
2022-09-28T22:02:19.947Z,2.92
2022-09-28T22:04:24.029Z,3.75
2022-09-28T22:06:28.998Z,2.90
2022-09-28T22:08:31.644Z,3.58
2022-09-28T22:10:34.251Z,3.35
2022-09-28T22:12:36.938Z,3.28
2022-09-28T22:14:39.544Z,3.25
2022-09-28T22:16:42.187Z,3.22
2022-09-28T22:18:45.245Z,3.15
2022-09-28T22:20:49.291Z,3.47
2022-09-28T22:22:51.970Z,3.30
2022-09-28T22:24:54.967Z,3.20
2022-09-28T22:26:57.720Z,4.00
2022-09-28T22:29:02.163Z,3.40
2022-09-28T22:31:05.720Z,3.30
2022-09-28T22:33:08.424Z,3.00
2022-09-28T22:35:11.001Z,3.47
2022-09-28T22:37:15.120Z,3.90
2022-09-28T22:39:17.706Z,3.70
2022-09-28T22:41:21.405Z,3.75
2022-09-28T22:43:25.452Z,3.40
2022-09-28T22:45:28.065Z,3.38
2022-09-28T22:47:30.691Z,4.10
2022-09-28T22:49:33.312Z,4.00
2022-09-28T22:51:35.927Z,3.40
2022-09-28T22:53:40.042Z,3.85
2022-09-28T22:55:43.295Z,3.67
2022-09-28T22:57:45.881Z,3.58
2022-09-28T22:59:48.445Z,4.15
2022-09-28T23:01:51.159Z,4.10
2022-09-28T23:03:55.212Z,3.88
2022-09-28T23:05:58.174Z,3.95
2022-09-28T23:08:00.863Z,3.80
2022-09-28T23:10:05.200Z,3.60
2022-09-28T23:12:07.866Z,4.25
2022-09-28T23:14:12.000Z,3.42
2022-09-28T23:16:15.094Z,3.58
2022-09-28T23:18:18.034Z,3.42
2022-09-28T23:20:21.227Z,4.85
2022-09-28T23:22:24.149Z,3.58
2022-09-28T23:24:26.836Z,4.18
2022-09-28T23:26:32.387Z,4.30
2022-09-28T23:28:35.025Z,3.85
2022-09-28T23:30:37.708Z,3.78
2022-09-28T23:32:40.373Z,3.70
2022-09-28T23:34:43.587Z,3.33
2022-09-28T23:36:46.342Z,3.70
2022-09-28T23:38:49.003Z,3.58
2022-09-28T23:40:51.697Z,3.45
2022-09-28T23:42:55.697Z,3.15
2022-09-28T23:44:58.297Z,3.25
2022-09-28T23:47:01.105Z,4.25
2022-09-28T23:49:03.784Z,3.40
2022-09-28T23:51:07.530Z,3.33
2022-09-28T23:53:10.637Z,3.75
2022-09-28T23:55:13.244Z,3.80
2022-09-28T23:57:15.900Z,3.15
2022-09-28T23:59:19.978Z,3.10
